createdAt,value
2022-11-30T00:02:26.303Z,7.07
2022-11-30T00:05:49.416Z,7.78
2022-11-30T00:09:14.977Z,7.60
2022-11-30T00:12:37.880Z,6.85
2022-11-30T00:16:01.748Z,8.02
2022-11-30T00:19:24.642Z,7.95
2022-11-30T00:22:47.535Z,7.68
2022-11-30T00:26:13.793Z,7.70
2022-11-30T00:29:36.722Z,7.28
2022-11-30T00:32:59.630Z,6.75
2022-11-30T00:36:23.612Z,7.57
2022-11-30T00:39:46.493Z,6.85
2022-11-30T00:43:10.776Z,6.72
2022-11-30T00:46:33.964Z,6.75
2022-11-30T00:49:56.963Z,6.75
2022-11-30T00:53:20.703Z,6.72
2022-11-30T00:56:43.659Z,8.10
2022-11-30T01:00:09.768Z,7.53
2022-11-30T01:03:32.859Z,7.70
2022-11-30T01:06:55.757Z,7.15
2022-11-30T01:10:18.968Z,6.45
2022-11-30T01:13:41.903Z,7.53
2022-11-30T01:17:06.212Z,6.15
2022-11-30T01:20:29.134Z,7.22
2022-11-30T01:23:52.468Z,8.55
2022-11-30T01:27:15.438Z,6.90
2022-11-30T01:30:38.405Z,6.97
2022-11-30T01:34:02.756Z,7.05
2022-11-30T01:37:25.648Z,6.43
2022-11-30T01:40:51.747Z,5.65
2022-11-30T01:44:57.397Z,6.07
2022-11-30T01:48:21.119Z,7.03
2022-11-30T01:51:48.064Z,6.85
2022-11-30T01:55:19.691Z,6.88
2022-11-30T01:58:42.739Z,7.05
2022-11-30T02:02:05.668Z,6.60
2022-11-30T02:05:28.991Z,6.05
2022-11-30T02:08:53.710Z,7.00
2022-11-30T02:12:23.670Z,6.35
2022-11-30T02:15:58.226Z,6.30
2022-11-30T02:19:51.328Z,6.35
2022-11-30T02:23:41.517Z,6.07
2022-11-30T02:27:19.524Z,8.18
2022-11-30T02:30:47.687Z,6.72
2022-11-30T02:34:14.919Z,6.22
2022-11-30T02:37:39.448Z,5.88
2022-11-30T02:41:02.376Z,6.80
2022-11-30T02:44:26.076Z,5.90
2022-11-30T02:47:56.700Z,6.65
2022-11-30T02:51:22.841Z,6.68
2022-11-30T02:54:46.092Z,6.43
2022-11-30T02:58:09.269Z,6.78
2022-11-30T03:01:32.543Z,5.07
2022-11-30T03:04:56.877Z,6.40
2022-11-30T03:08:19.759Z,5.57
2022-11-30T03:11:42.729Z,6.28
2022-11-30T03:15:06.581Z,6.18
2022-11-30T03:18:29.508Z,5.72
2022-11-30T03:21:53.796Z,5.68
2022-11-30T03:25:16.878Z,5.03
2022-11-30T03:28:39.771Z,5.43
2022-11-30T03:32:02.675Z,5.53
2022-11-30T03:35:25.566Z,5.43
2022-11-30T03:38:49.913Z,6.30
2022-11-30T03:42:12.857Z,4.72
2022-11-30T03:45:35.766Z,5.07
2022-11-30T03:48:58.647Z,5.75
2022-11-30T03:52:21.668Z,6.03
2022-11-30T03:55:45.952Z,6.25
2022-11-30T03:59:08.879Z,5.22
2022-11-30T04:02:32.106Z,5.35
2022-11-30T04:05:55.377Z,4.82
2022-11-30T04:09:18.311Z,4.85
2022-11-30T04:12:42.535Z,5.78
2022-11-30T04:16:06.823Z,4.78
2022-11-30T04:19:29.770Z,5.22
2022-11-30T04:22:53.744Z,5.05
2022-11-30T04:26:17.904Z,5.80
2022-11-30T04:29:42.160Z,4.85
2022-11-30T04:33:06.107Z,5.38
2022-11-30T04:36:29.006Z,5.28
2022-11-30T04:39:51.879Z,5.50
2022-11-30T04:43:14.940Z,5.68
2022-11-30T04:46:39.250Z,4.70
2022-11-30T04:50:02.519Z,5.70
2022-11-30T04:53:25.402Z,5.43
2022-11-30T04:56:48.311Z,5.55
2022-11-30T05:00:12.560Z,5.30
2022-11-30T05:03:36.925Z,4.60
2022-11-30T05:06:59.810Z,5.20
2022-11-30T05:10:22.876Z,4.72
2022-11-30T05:13:45.788Z,5.05
2022-11-30T05:17:08.699Z,4.68
2022-11-30T05:20:32.931Z,4.93
2022-11-30T05:23:55.819Z,4.80
2022-11-30T05:27:22.588Z,4.30
2022-11-30T05:30:45.868Z,5.10
2022-11-30T05:34:08.818Z,4.63
2022-11-30T05:37:33.136Z,4.45
2022-11-30T05:41:00.952Z,4.22
2022-11-30T05:44:23.861Z,5.05
2022-11-30T05:47:46.775Z,5.28
2022-11-30T05:51:11.268Z,5.18
2022-11-30T05:54:36.095Z,5.55
2022-11-30T05:57:59.049Z,6.80
2022-11-30T06:01:23.452Z,5.53
2022-11-30T06:04:46.621Z,5.05
2022-11-30T06:08:09.741Z,5.80
2022-11-30T06:11:34.079Z,5.15
2022-11-30T06:14:56.976Z,6.65
2022-11-30T06:18:20.030Z,6.03
2022-11-30T06:21:43.050Z,6.10
2022-11-30T06:25:06.707Z,7.78
2022-11-30T06:28:31.112Z,6.50
2022-11-30T06:31:54.030Z,7.07
2022-11-30T06:35:17.260Z,6.93
2022-11-30T06:38:40.209Z,7.97
2022-11-30T06:42:03.130Z,6.60
2022-11-30T06:45:27.412Z,7.60
2022-11-30T06:48:50.880Z,8.32
2022-11-30T06:52:14.088Z,6.35
2022-11-30T06:55:38.267Z,6.53
2022-11-30T06:59:01.210Z,7.30
2022-11-30T07:02:26.326Z,6.13
2022-11-30T07:05:49.231Z,5.88
2022-11-30T07:09:13.176Z,6.25
2022-11-30T07:12:36.439Z,6.95
2022-11-30T07:15:59.479Z,7.35
2022-11-30T07:19:23.739Z,6.30
2022-11-30T07:22:46.639Z,6.00
2022-11-30T07:26:09.435Z,16.95
2022-11-30T07:29:32.438Z,18.23
2022-11-30T07:32:55.484Z,21.48
2022-11-30T07:36:21.714Z,20.80
2022-11-30T07:39:44.637Z,18.60
2022-11-30T07:43:07.789Z,18.63
2022-11-30T07:46:33.649Z,15.57
2022-11-30T07:49:57.146Z,13.20
2022-11-30T07:53:21.565Z,12.63
2022-11-30T07:56:44.669Z,11.95
2022-11-30T08:00:10.073Z,12.10
2022-11-30T08:03:37.216Z,10.07
2022-11-30T08:07:00.527Z,9.52
2022-11-30T08:10:25.407Z,9.35
2022-11-30T08:13:48.371Z,9.05
2022-11-30T08:17:11.294Z,7.60
2022-11-30T08:20:34.566Z,7.78
2022-11-30T08:23:58.177Z,7.15
2022-11-30T08:27:22.469Z,7.53
2022-11-30T08:30:45.433Z,7.53
2022-11-30T08:34:11.586Z,7.32
2022-11-30T08:37:37.699Z,7.07
2022-11-30T08:41:00.592Z,5.95
2022-11-30T08:44:24.999Z,6.28
2022-11-30T08:47:47.921Z,6.40
2022-11-30T08:51:12.716Z,6.10
2022-11-30T08:54:35.646Z,6.38
2022-11-30T08:57:59.066Z,5.43
2022-11-30T09:01:27.168Z,5.85
2022-11-30T09:04:53.512Z,6.65
2022-11-30T09:08:16.514Z,6.07
2022-11-30T09:11:39.552Z,6.25
2022-11-30T09:15:02.726Z,6.57
2022-11-30T09:18:27.427Z,5.47
2022-11-30T09:21:52.300Z,6.53
2022-11-30T09:25:15.598Z,6.07
2022-11-30T09:28:39.965Z,5.63
2022-11-30T09:32:02.980Z,5.35
2022-11-30T09:35:27.683Z,6.07
2022-11-30T09:38:53.489Z,5.55
2022-11-30T09:42:34.817Z,5.35
2022-11-30T09:46:00.571Z,6.70
2022-11-30T09:49:26.416Z,5.80
2022-11-30T09:52:53.218Z,5.65
2022-11-30T09:56:22.542Z,5.28
2022-11-30T09:59:52.654Z,6.95
2022-11-30T10:03:15.845Z,6.35
2022-11-30T10:06:44.238Z,6.30
2022-11-30T10:10:34.041Z,6.90
2022-11-30T10:14:06.962Z,5.28
2022-11-30T10:17:40.585Z,6.18
2022-11-30T10:21:12.051Z,7.05
2022-11-30T10:24:51.226Z,5.22
2022-11-30T10:28:45.390Z,5.75
2022-11-30T10:32:11.297Z,6.20
2022-11-30T10:35:38.580Z,6.40
2022-11-30T10:39:05.720Z,6.32
2022-11-30T10:42:33.559Z,5.18
2022-11-30T10:45:57.944Z,4.97
2022-11-30T10:49:23.452Z,6.20
2022-11-30T10:52:49.188Z,5.55
2022-11-30T10:56:14.168Z,5.30
2022-11-30T10:59:43.313Z,4.78
2022-11-30T11:03:24.080Z,5.35
2022-11-30T11:06:49.854Z,5.60
2022-11-30T11:10:16.396Z,4.63
2022-11-30T11:13:40.791Z,4.35
2022-11-30T11:17:06.687Z,4.68
2022-11-30T11:20:34.417Z,5.25
2022-11-30T11:23:58.614Z,4.72
2022-11-30T11:27:26.836Z,4.68
2022-11-30T11:30:50.124Z,5.40
2022-11-30T11:34:26.121Z,5.47
2022-11-30T11:37:53.518Z,5.03
2022-11-30T11:41:22.494Z,4.35
2022-11-30T11:44:50.757Z,4.55
2022-11-30T11:48:29.605Z,4.75
2022-11-30T11:52:02.040Z,4.85
2022-11-30T11:55:26.389Z,5.28
2022-11-30T11:58:53.541Z,3.83
2022-11-30T12:02:28.894Z,3.60
2022-11-30T12:05:59.074Z,4.93
2022-11-30T12:09:26.373Z,4.93
2022-11-30T12:12:54.696Z,5.00
2022-11-30T12:16:38.777Z,4.28
2022-11-30T12:20:14.048Z,5.30
2022-11-30T12:23:54.803Z,5.18
2022-11-30T12:27:23.433Z,4.80
2022-11-30T12:31:06.584Z,4.30
2022-11-30T12:34:45.568Z,4.40
2022-11-30T12:38:18.978Z,5.13
2022-11-30T12:41:51.116Z,4.65
2022-11-30T12:45:20.334Z,5.82
2022-11-30T12:49:01.010Z,5.32
2022-11-30T12:52:37.193Z,5.63
2022-11-30T12:56:12.858Z,6.07
2022-11-30T12:59:46.050Z,6.10
2022-11-30T13:03:28.283Z,5.25
2022-11-30T13:06:56.918Z,6.43
2022-11-30T13:10:27.608Z,5.38
2022-11-30T13:13:53.424Z,5.95
2022-11-30T13:17:21.132Z,6.07
2022-11-30T13:20:50.579Z,6.05
2022-11-30T13:24:24.343Z,5.28
2022-11-30T13:27:58.043Z,6.53
2022-11-30T13:31:25.446Z,6.00
2022-11-30T13:34:48.733Z,5.85
2022-11-30T13:38:37.375Z,6.00
2022-11-30T13:42:34.547Z,6.40
2022-11-30T13:46:14.330Z,5.95
2022-11-30T13:49:38.233Z,6.03
2022-11-30T13:53:19.673Z,5.95
2022-11-30T13:56:48.747Z,7.63
2022-11-30T14:00:49.358Z,5.85
2022-11-30T14:04:45.967Z,5.57
2022-11-30T14:08:33.401Z,6.15
2022-11-30T14:11:56.490Z,6.15
2022-11-30T14:15:53.992Z,5.05
2022-11-30T14:19:17.326Z,6.18
2022-11-30T14:22:42.040Z,5.50
2022-11-30T14:26:11.184Z,5.85
2022-11-30T14:29:38.248Z,5.45
2022-11-30T14:33:05.435Z,6.78
2022-11-30T14:36:35.379Z,6.90
2022-11-30T14:40:03.694Z,5.72
2022-11-30T14:43:26.802Z,5.50
2022-11-30T14:46:52.655Z,5.90
2022-11-30T14:50:24.387Z,6.32
2022-11-30T14:53:54.020Z,6.05
2022-11-30T14:57:28.503Z,6.85
2022-11-30T15:00:53.812Z,6.97
2022-11-30T15:04:20.948Z,5.70
2022-11-30T15:07:45.206Z,5.80
2022-11-30T15:11:12.647Z,6.45
2022-11-30T15:14:37.125Z,6.45
2022-11-30T15:18:09.151Z,5.55
2022-11-30T15:21:33.528Z,6.15
2022-11-30T15:24:56.464Z,5.38
2022-11-30T15:28:23.352Z,6.28
2022-11-30T15:31:53.134Z,6.30
2022-11-30T15:35:22.680Z,6.55
2022-11-30T15:38:51.191Z,5.88
2022-11-30T15:42:21.551Z,6.90
2022-11-30T15:45:54.734Z,5.32
2022-11-30T15:49:24.637Z,6.13
2022-11-30T15:52:51.767Z,5.53
2022-11-30T15:56:24.246Z,6.00
2022-11-30T16:00:07.160Z,5.68
2022-11-30T16:03:30.468Z,4.93
2022-11-30T16:06:54.837Z,5.57
2022-11-30T16:10:21.226Z,6.32
2022-11-30T16:13:44.956Z,5.93
2022-11-30T16:17:09.209Z,6.78
2022-11-30T16:20:32.299Z,5.78
2022-11-30T16:23:56.563Z,6.15
2022-11-30T16:27:22.502Z,6.35
2022-11-30T16:30:46.972Z,7.70
2022-11-30T16:34:12.463Z,6.28
2022-11-30T16:37:35.335Z,6.65
2022-11-30T16:41:14.922Z,7.40
2022-11-30T16:44:37.892Z,5.32
2022-11-30T16:48:00.800Z,6.88
2022-11-30T16:51:27.144Z,6.82
2022-11-30T16:54:50.155Z,6.22
2022-11-30T16:58:14.381Z,6.32
2022-11-30T17:01:40.962Z,6.60
2022-11-30T17:05:04.029Z,6.68
2022-11-30T17:08:26.956Z,6.63
2022-11-30T17:11:51.326Z,6.53
2022-11-30T17:15:18.521Z,6.75
2022-11-30T17:18:41.918Z,5.93
2022-11-30T17:22:05.392Z,6.22
2022-11-30T17:25:28.720Z,5.80
2022-11-30T17:28:51.702Z,6.28
2022-11-30T17:32:15.917Z,6.93
2022-11-30T17:35:39.897Z,6.53
2022-11-30T17:39:05.763Z,6.55
2022-11-30T17:42:29.902Z,7.60
2022-11-30T17:45:53.012Z,7.30
2022-11-30T17:49:17.416Z,6.70
2022-11-30T17:52:40.362Z,6.88
2022-11-30T17:56:04.661Z,6.13
2022-11-30T17:59:27.670Z,5.68
2022-11-30T18:02:52.112Z,6.95
2022-11-30T18:06:16.900Z,6.65
2022-11-30T18:09:42.678Z,6.20
2022-11-30T18:13:06.066Z,6.68
2022-11-30T18:16:30.902Z,6.57
2022-11-30T18:19:54.504Z,6.55
2022-11-30T18:23:18.780Z,7.93
2022-11-30T18:26:41.784Z,6.55
2022-11-30T18:30:10.009Z,7.55
2022-11-30T18:33:33.682Z,7.72
2022-11-30T18:36:57.427Z,7.07
2022-11-30T18:40:21.880Z,6.43
2022-11-30T18:43:44.876Z,7.57
2022-11-30T18:47:08.355Z,7.72
2022-11-30T18:50:31.324Z,8.38
2022-11-30T18:53:57.641Z,7.63
2022-11-30T18:57:22.188Z,8.73
2022-11-30T19:00:45.264Z,8.18
2022-11-30T19:04:10.415Z,8.82
2022-11-30T19:07:35.332Z,8.98
2022-11-30T19:11:05.461Z,8.48
2022-11-30T19:14:30.113Z,9.57
2022-11-30T19:17:53.132Z,8.30
2022-11-30T19:21:18.474Z,8.05
2022-11-30T19:24:41.424Z,9.20
2022-11-30T19:28:04.652Z,8.63
2022-11-30T19:31:28.978Z,10.30
2022-11-30T19:34:52.538Z,9.45
2022-11-30T19:38:15.415Z,9.18
2022-11-30T19:41:38.343Z,10.00
2022-11-30T19:45:01.271Z,10.43
2022-11-30T19:48:25.546Z,8.75
2022-11-30T19:51:48.513Z,9.50
2022-11-30T19:55:11.545Z,9.25
2022-11-30T19:58:34.772Z,9.75
2022-11-30T20:01:57.690Z,9.70
2022-11-30T20:05:22.047Z,10.18
2022-11-30T20:08:45.126Z,9.57
2022-11-30T20:12:08.412Z,10.25
2022-11-30T20:15:31.389Z,9.68
2022-11-30T20:18:56.288Z,10.20
2022-11-30T20:22:20.761Z,9.35
2022-11-30T20:25:43.757Z,9.88
2022-11-30T20:29:08.587Z,8.82
2022-11-30T20:32:32.147Z,9.93
2022-11-30T20:35:55.175Z,9.23
2022-11-30T20:39:19.564Z,10.48
2022-11-30T20:42:42.829Z,9.93
2022-11-30T20:46:13.989Z,9.95
2022-11-30T20:49:37.310Z,8.88
2022-11-30T20:53:00.590Z,9.82
2022-11-30T20:56:25.161Z,10.00
2022-11-30T20:59:48.466Z,10.20
2022-11-30T21:03:11.489Z,10.07
2022-11-30T21:06:34.632Z,8.88
2022-11-30T21:09:58.461Z,9.85
2022-11-30T21:13:22.865Z,9.73
2022-11-30T21:16:45.877Z,9.40
2022-11-30T21:20:09.881Z,9.73
2022-11-30T21:23:33.268Z,8.18
2022-11-30T21:26:56.259Z,9.88
2022-11-30T21:30:20.724Z,9.50
2022-11-30T21:33:50.931Z,8.75
2022-11-30T21:37:15.253Z,9.73
2022-11-30T21:40:38.167Z,9.95
2022-11-30T21:44:01.099Z,9.95
2022-11-30T21:47:25.351Z,9.73
2022-11-30T21:50:48.234Z,9.82
2022-11-30T21:54:13.200Z,8.70
2022-11-30T21:57:36.085Z,9.55
2022-11-30T22:01:00.893Z,9.90
2022-11-30T22:04:25.262Z,9.00
2022-11-30T22:07:48.318Z,9.13
2022-11-30T22:11:12.880Z,10.15
2022-11-30T22:14:36.450Z,9.48
2022-11-30T22:17:59.361Z,9.35
2022-11-30T22:21:25.313Z,9.05
2022-11-30T22:24:48.876Z,9.85
2022-11-30T22:28:11.771Z,9.65
2022-11-30T22:31:36.681Z,8.70
2022-11-30T22:34:59.631Z,8.93
2022-11-30T22:38:23.871Z,8.88
2022-11-30T22:41:53.080Z,8.68
2022-11-30T22:45:18.459Z,9.30
2022-11-30T22:48:42.015Z,10.52
2022-11-30T22:52:05.020Z,9.70
2022-11-30T22:55:29.384Z,10.23
2022-11-30T22:58:54.581Z,9.73
2022-11-30T23:02:17.551Z,9.68
2022-11-30T23:05:40.448Z,10.20
2022-11-30T23:09:04.764Z,11.15
2022-11-30T23:12:57.452Z,9.82
2022-11-30T23:16:13.708Z,10.00
2022-11-30T23:19:36.648Z,11.80
2022-11-30T23:22:59.588Z,11.00
2022-11-30T23:26:24.336Z,10.70
2022-11-30T23:29:48.736Z,10.15
2022-11-30T23:33:11.771Z,9.88
2022-11-30T23:36:35.716Z,11.05
2022-11-30T23:39:58.698Z,10.05
2022-11-30T23:43:21.591Z,9.18
2022-11-30T23:46:46.179Z,9.68
2022-11-30T23:50:10.204Z,10.27
2022-11-30T23:53:33.512Z,9.15
2022-11-30T23:56:56.491Z,9.00
